Terminal Aerodrome Forecast
Issued by NWS Sterling, VA

Current Version | Previous Version | Graphics & Text | Print | Product List | Glossary On
Versions: 1 2 3 4 5 6 7 8 9 10 11 12 13 14 15 16 17 18 19 20 21 22
000
FTUS41 KLWX 262000 AAA
TAFDCA
TAF AMD
KDCA 262059Z 2621/2718 02011G18KT 5SM -RASN BR OVC011
     FM262300 02012G20KT 5SM -SN BR OVC010
     FM270400 34010KT 3SM -SN BR OVC015
     FM271100 34011G19KT 4SM -SHSN SCT009 OVC015
     FM271400 33011G19KT P6SM OVC015
     FM271600 31012G22KT P6SM BKN035 BKN050=

USA.gov is the U.S. government's official web portal to all federal, state and local government web resources and services.